sensor_id;sensor_type;location;lat;lon;timestamp;P1;durP1;ratioP1;P2;durP2;ratioP2
37805;SDS011;25082;50.870;0.022;2024-01-15T00:02:00;3.55;;;1.55;;
37805;SDS011;25082;50.870;0.022;2024-01-15T00:04:25;2.05;;;1.20;;
37805;SDS011;25082;50.870;0.022;2024-01-15T00:06:51;3.40;;;1.80;;
37805;SDS011;25082;50.870;0.022;2024-01-15T00:09:17;2.25;;;1.17;;
37805;SDS011;25082;50.870;0.022;2024-01-15T00:11:43;2.90;;;1.50;;
37805;SDS011;25082;50.870;0.022;2024-01-15T00:14:08;2.63;;;1.13;;
37805;SDS011;25082;50.870;0.022;2024-01-15T00:16:34;2.50;;;1.27;;
37805;SDS011;25082;50.870;0.022;2024-01-15T00:19:00;1.30;;;1.05;;
37805;SDS011;25082;50.870;0.022;2024-01-15T00:21:26;2.30;;;1.10;;
37805;SDS011;25082;50.870;0.022;2024-01-15T00:23:53;1.55;;;1.02;;
37805;SDS011;25082;50.870;0.022;2024-01-15T00:26:18;1.75;;;1.00;;
37805;SDS011;25082;50.870;0.022;2024-01-15T00:28:44;2.45;;;1.52;;
37805;SDS011;25082;50.870;0.022;2024-01-15T00:31:10;2.20;;;1.20;;
37805;SDS011;25082;50.870;0.022;2024-01-15T00:33:36;2.33;;;1.38;;
37805;SDS011;25082;50.870;0.022;2024-01-15T00:36:01;1.63;;;1.20;;
37805;SDS011;25082;50.870;0.022;2024-01-15T00:38:28;1.35;;;0.90;;
37805;SDS011;25082;50.870;0.022;2024-01-15T00:40:54;1.92;;;1.02;;
37805;SDS011;25082;50.870;0.022;2024-01-15T00:43:20;3.75;;;1.33;;
37805;SDS011;25082;50.870;0.022;2024-01-15T00:45:46;2.65;;;1.70;;
37805;SDS011;25082;50.870;0.022;2024-01-15T00:48:12;2.08;;;1.08;;
37805;SDS011;25082;50.870;0.022;2024-01-15T00:50:37;1.95;;;1.15;;
37805;SDS011;25082;50.870;0.022;2024-01-15T00:53:03;1.65;;;1.05;;
37805;SDS011;25082;50.870;0.022;2024-01-15T00:55:29;1.10;;;0.80;;
37805;SDS011;25082;50.870;0.022;2024-01-15T00:57:55;2.20;;;1.27;;
37805;SDS011;25082;50.870;0.022;2024-01-15T01:00:21;2.17;;;1.13;;
37805;SDS011;25082;50.870;0.022;2024-01-15T01:02:46;1.80;;;0.77;;
37805;SDS011;25082;50.870;0.022;2024-01-15T01:05:12;2.25;;;1.27;;
37805;SDS011;25082;50.870;0.022;2024-01-15T01:07:38;1.23;;;1.00;;
37805;SDS011;25082;50.870;0.022;2024-01-15T01:10:04;2.38;;;1.10;;
37805;SDS011;25082;50.870;0.022;2024-01-15T01:12:30;2.20;;;1.10;;
37805;SDS011;25082;50.870;0.022;2024-01-15T01:14:56;1.55;;;0.95;;
37805;SDS011;25082;50.870;0.022;2024-01-15T01:17:22;1.80;;;1.23;;
37805;SDS011;25082;50.870;0.022;2024-01-15T01:19:47;2.08;;;1.00;;
37805;SDS011;25082;50.870;0.022;2024-01-15T01:22:14;1.40;;;0.90;;
37805;SDS011;25082;50.870;0.022;2024-01-15T01:24:40;2.05;;;1.23;;
37805;SDS011;25082;50.870;0.022;2024-01-15T01:27:06;3.53;;;1.40;;
37805;SDS011;25082;50.870;0.022;2024-01-15T01:29:32;2.05;;;0.90;;
37805;SDS011;25082;50.870;0.022;2024-01-15T01:31:58;1.05;;;0.80;;
37805;SDS011;25082;50.870;0.022;2024-01-15T01:34:23;1.50;;;1.27;;
37805;SDS011;25082;50.870;0.022;2024-01-15T01:36:49;1.17;;;1.00;;
37805;SDS011;25082;50.870;0.022;2024-01-15T01:39:15;1.92;;;1.10;;
37805;SDS011;25082;50.870;0.022;2024-01-15T01:41:41;1.40;;;0.98;;
37805;SDS011;25082;50.870;0.022;2024-01-15T01:44:07;1.60;;;1.10;;
37805;SDS011;25082;50.870;0.022;2024-01-15T01:46:32;0.80;;;0.80;;
37805;SDS011;25082;50.870;0.022;2024-01-15T01:49:04;3.58;;;1.33;;
37805;SDS011;25082;50.870;0.022;2024-01-15T01:51:31;2.58;;;1.33;;
37805;SDS011;25082;50.870;0.022;2024-01-15T01:53:59;1.88;;;1.08;;
37805;SDS011;25082;50.870;0.022;2024-01-15T01:56:25;1.50;;;1.15;;
37805;SDS011;25082;50.870;0.022;2024-01-15T01:58:52;1.35;;;1.23;;
37805;SDS011;25082;50.870;0.022;2024-01-15T02:01:18;1.58;;;0.90;;
37805;SDS011;25082;50.870;0.022;2024-01-15T02:03:44;1.35;;;1.10;;
37805;SDS011;25082;50.870;0.022;2024-01-15T02:06:10;1.90;;;1.10;;
37805;SDS011;25082;50.870;0.022;2024-01-15T02:08:36;1.55;;;1.23;;
37805;SDS011;25082;50.870;0.022;2024-01-15T02:11:03;1.77;;;1.40;;
37805;SDS011;25082;50.870;0.022;2024-01-15T02:13:29;1.70;;;1.08;;
37805;SDS011;25082;50.870;0.022;2024-01-15T02:15:55;1.85;;;1.20;;
37805;SDS011;25082;50.870;0.022;2024-01-15T02:18:20;1.50;;;0.88;;
37805;SDS011;25082;50.870;0.022;2024-01-15T02:20:46;2.17;;;1.02;;
37805;SDS011;25082;50.870;0.022;2024-01-15T02:23:13;2.35;;;1.20;;
37805;SDS011;25082;50.870;0.022;2024-01-15T02:25:41;2.38;;;1.30;;
37805;SDS011;25082;50.870;0.022;2024-01-15T02:28:09;2.40;;;1.08;;
37805;SDS011;25082;50.870;0.022;2024-01-15T02:30:37;1.83;;;1.00;;
37805;SDS011;25082;50.870;0.022;2024-01-15T02:33:04;2.50;;;1.33;;
37805;SDS011;25082;50.870;0.022;2024-01-15T02:35:30;2.15;;;1.33;;
37805;SDS011;25082;50.870;0.022;2024-01-15T02:37:56;1.65;;;1.10;;
37805;SDS011;25082;50.870;0.022;2024-01-15T02:40:22;2.25;;;1.00;;
37805;SDS011;25082;50.870;0.022;2024-01-15T02:42:47;1.42;;;1.00;;
37805;SDS011;25082;50.870;0.022;2024-01-15T02:45:13;1.85;;;0.80;;
37805;SDS011;25082;50.870;0.022;2024-01-15T02:47:39;2.65;;;1.27;;
37805;SDS011;25082;50.870;0.022;2024-01-15T02:50:05;2.72;;;1.20;;
37805;SDS011;25082;50.870;0.022;2024-01-15T02:52:31;1.40;;;1.02;;
37805;SDS011;25082;50.870;0.022;2024-01-15T02:54:57;3.55;;;0.88;;
37805;SDS011;25082;50.870;0.022;2024-01-15T02:57:23;3.08;;;1.20;;
37805;SDS011;25082;50.870;0.022;2024-01-15T02:59:48;1.67;;;0.90;;
37805;SDS011;25082;50.870;0.022;2024-01-15T03:02:14;3.95;;;1.20;;
37805;SDS011;25082;50.870;0.022;2024-01-15T03:04:43;1.60;;;1.30;;
37805;SDS011;25082;50.870;0.022;2024-01-15T03:07:10;1.25;;;1.10;;
37805;SDS011;25082;50.870;0.022;2024-01-15T03:09:36;1.10;;;0.88;;
37805;SDS011;25082;50.870;0.022;2024-01-15T03:12:01;1.42;;;0.82;;
37805;SDS011;25082;50.870;0.022;2024-01-15T03:14:27;2.75;;;1.08;;
37805;SDS011;25082;50.870;0.022;2024-01-15T03:16:53;3.08;;;1.20;;
37805;SDS011;25082;50.870;0.022;2024-01-15T03:19:19;2.13;;;1.30;;
37805;SDS011;25082;50.870;0.022;2024-01-15T03:21:44;1.30;;;1.00;;
37805;SDS011;25082;50.870;0.022;2024-01-15T03:24:10;1.35;;;0.98;;
37805;SDS011;25082;50.870;0.022;2024-01-15T03:26:36;2.25;;;1.58;;
37805;SDS011;25082;50.870;0.022;2024-01-15T03:29:02;1.50;;;0.80;;
37805;SDS011;25082;50.870;0.022;2024-01-15T03:31:28;1.55;;;1.00;;
37805;SDS011;25082;50.870;0.022;2024-01-15T03:33:53;1.65;;;0.90;;
37805;SDS011;25082;50.870;0.022;2024-01-15T03:36:19;0.82;;;0.73;;
37805;SDS011;25082;50.870;0.022;2024-01-15T03:38:45;2.53;;;1.13;;
37805;SDS011;25082;50.870;0.022;2024-01-15T03:41:11;1.17;;;1.05;;
37805;SDS011;25082;50.870;0.022;2024-01-15T03:43:36;1.42;;;1.00;;
37805;SDS011;25082;50.870;0.022;2024-01-15T03:46:02;0.95;;;0.80;;
37805;SDS011;25082;50.870;0.022;2024-01-15T03:48:29;1.52;;;0.90;;
37805;SDS011;25082;50.870;0.022;2024-01-15T03:50:55;1.42;;;0.90;;
37805;SDS011;25082;50.870;0.022;2024-01-15T03:53:21;2.42;;;1.30;;
37805;SDS011;25082;50.870;0.022;2024-01-15T03:55:47;1.58;;;0.82;;
37805;SDS011;25082;50.870;0.022;2024-01-15T03:58:12;1.67;;;0.80;;
37805;SDS011;25082;50.870;0.022;2024-01-15T04:00:40;1.48;;;0.70;;
37805;SDS011;25082;50.870;0.022;2024-01-15T04:03:06;1.40;;;0.90;;
37805;SDS011;25082;50.870;0.022;2024-01-15T04:05:31;0.95;;;0.88;;
37805;SDS011;25082;50.870;0.022;2024-01-15T04:07:57;2.55;;;1.13;;
37805;SDS011;25082;50.870;0.022;2024-01-15T04:10:23;1.17;;;1.00;;
37805;SDS011;25082;50.870;0.022;2024-01-15T04:12:49;4.20;;;1.45;;
37805;SDS011;25082;50.870;0.022;2024-01-15T04:15:15;1.67;;;0.88;;
37805;SDS011;25082;50.870;0.022;2024-01-15T04:17:40;1.25;;;0.80;;
37805;SDS011;25082;50.870;0.022;2024-01-15T04:20:06;1.10;;;0.73;;
37805;SDS011;25082;50.870;0.022;2024-01-15T04:22:33;1.38;;;0.98;;
37805;SDS011;25082;50.870;0.022;2024-01-15T04:25:00;0.93;;;0.82;;
37805;SDS011;25082;50.870;0.022;2024-01-15T04:27:26;1.70;;;1.10;;
37805;SDS011;25082;50.870;0.022;2024-01-15T04:29:52;1.20;;;0.80;;
37805;SDS011;25082;50.870;0.022;2024-01-15T04:32:18;1.23;;;0.82;;
37805;SDS011;25082;50.870;0.022;2024-01-15T04:34:43;2.08;;;1.23;;
37805;SDS011;25082;50.870;0.022;2024-01-15T04:37:09;1.10;;;0.70;;
37805;SDS011;25082;50.870;0.022;2024-01-15T04:39:35;2.70;;;1.33;;
37805;SDS011;25082;50.870;0.022;2024-01-15T04:42:01;1.63;;;0.80;;
37805;SDS011;25082;50.870;0.022;2024-01-15T04:44:28;1.50;;;0.70;;
37805;SDS011;25082;50.870;0.022;2024-01-15T04:46:54;0.93;;;0.80;;
37805;SDS011;25082;50.870;0.022;2024-01-15T04:49:19;2.92;;;0.82;;
37805;SDS011;25082;50.870;0.022;2024-01-15T04:51:45;2.65;;;1.02;;
37805;SDS011;25082;50.870;0.022;2024-01-15T04:54:11;1.30;;;0.80;;
37805;SDS011;25082;50.870;0.022;2024-01-15T04:56:37;1.75;;;0.82;;
37805;SDS011;25082;50.870;0.022;2024-01-15T04:59:03;1.08;;;0.82;;
37805;SDS011;25082;50.870;0.022;2024-01-15T05:01:32;1.77;;;0.90;;
37805;SDS011;25082;50.870;0.022;2024-01-15T05:03:58;2.15;;;0.93;;
37805;SDS011;25082;50.870;0.022;2024-01-15T05:06:24;2.15;;;1.20;;
37805;SDS011;25082;50.870;0.022;2024-01-15T05:08:50;1.30;;;0.90;;
37805;SDS011;25082;50.870;0.022;2024-01-15T05:11:15;1.20;;;0.90;;
37805;SDS011;25082;50.870;0.022;2024-01-15T05:13:41;2.25;;;0.85;;
37805;SDS011;25082;50.870;0.022;2024-01-15T05:16:07;2.08;;;1.10;;
37805;SDS011;25082;50.870;0.022;2024-01-15T05:18:33;1.08;;;0.80;;
37805;SDS011;25082;50.870;0.022;2024-01-15T05:20:59;1.98;;;0.90;;
37805;SDS011;25082;50.870;0.022;2024-01-15T05:23:24;0.80;;;0.75;;
37805;SDS011;25082;50.870;0.022;2024-01-15T05:25:50;2.05;;;0.80;;
37805;SDS011;25082;50.870;0.022;2024-01-15T05:28:16;1.15;;;0.73;;
37805;SDS011;25082;50.870;0.022;2024-01-15T05:30:42;0.60;;;0.60;;
37805;SDS011;25082;50.870;0.022;2024-01-15T05:33:07;1.48;;;0.90;;
37805;SDS011;25082;50.870;0.022;2024-01-15T05:35:34;1.77;;;1.02;;
37805;SDS011;25082;50.870;0.022;2024-01-15T05:38:00;1.80;;;0.80;;
37805;SDS011;25082;50.870;0.022;2024-01-15T05:40:26;1.88;;;1.00;;
37805;SDS011;25082;50.870;0.022;2024-01-15T05:42:52;1.75;;;0.82;;
37805;SDS011;25082;50.870;0.022;2024-01-15T05:45:17;1.10;;;0.80;;
37805;SDS011;25082;50.870;0.022;2024-01-15T05:47:43;2.20;;;1.13;;
37805;SDS011;25082;50.870;0.022;2024-01-15T05:50:09;1.65;;;0.98;;
37805;SDS011;25082;50.870;0.022;2024-01-15T05:52:35;1.83;;;1.25;;
37805;SDS011;25082;50.870;0.022;2024-01-15T05:55:01;2.20;;;0.88;;
37805;SDS011;25082;50.870;0.022;2024-01-15T05:57:27;1.05;;;0.70;;
37805;SDS011;25082;50.870;0.022;2024-01-15T05:59:53;1.67;;;0.90;;
37805;SDS011;25082;50.870;0.022;2024-01-15T06:02:19;0.95;;;0.73;;
37805;SDS011;25082;50.870;0.022;2024-01-15T06:04:45;1.55;;;0.73;;
37805;SDS011;25082;50.870;0.022;2024-01-15T06:07:11;1.73;;;0.73;;
37805;SDS011;25082;50.870;0.022;2024-01-15T06:09:36;1.15;;;0.82;;
37805;SDS011;25082;50.870;0.022;2024-01-15T06:12:03;1.33;;;0.70;;
37805;SDS011;25082;50.870;0.022;2024-01-15T06:14:30;1.77;;;0.68;;
37805;SDS011;25082;50.870;0.022;2024-01-15T06:16:55;2.90;;;0.90;;
37805;SDS011;25082;50.870;0.022;2024-01-15T06:19:21;1.48;;;0.80;;
37805;SDS011;25082;50.870;0.022;2024-01-15T06:21:47;2.30;;;0.73;;
37805;SDS011;25082;50.870;0.022;2024-01-15T06:24:13;2.42;;;0.65;;
37805;SDS011;25082;50.870;0.022;2024-01-15T06:26:40;1.10;;;0.60;;
37805;SDS011;25082;50.870;0.022;2024-01-15T06:29:06;1.27;;;0.70;;
37805;SDS011;25082;50.870;0.022;2024-01-15T06:31:32;0.95;;;0.73;;
37805;SDS011;25082;50.870;0.022;2024-01-15T06:33:57;2.47;;;1.20;;
37805;SDS011;25082;50.870;0.022;2024-01-15T06:36:23;2.75;;;0.85;;
37805;SDS011;25082;50.870;0.022;2024-01-15T06:38:49;2.38;;;0.85;;
37805;SDS011;25082;50.870;0.022;2024-01-15T06:41:15;3.00;;;0.90;;
37805;SDS011;25082;50.870;0.022;2024-01-15T06:43:40;0.88;;;0.73;;
37805;SDS011;25082;50.870;0.022;2024-01-15T06:46:06;2.67;;;0.70;;
37805;SDS011;25082;50.870;0.022;2024-01-15T06:48:32;0.93;;;0.60;;
37805;SDS011;25082;50.870;0.022;2024-01-15T06:50:57;1.13;;;0.88;;
37805;SDS011;25082;50.870;0.022;2024-01-15T06:53:23;1.45;;;0.70;;
37805;SDS011;25082;50.870;0.022;2024-01-15T06:55:50;1.27;;;0.80;;
37805;SDS011;25082;50.870;0.022;2024-01-15T06:58:16;1.33;;;0.80;;
37805;SDS011;25082;50.870;0.022;2024-01-15T07:00:42;2.30;;;1.02;;
37805;SDS011;25082;50.870;0.022;2024-01-15T07:03:07;3.03;;;0.90;;
37805;SDS011;25082;50.870;0.022;2024-01-15T07:05:33;1.77;;;0.85;;
37805;SDS011;25082;50.870;0.022;2024-01-15T07:07:59;0.82;;;0.70;;
37805;SDS011;25082;50.870;0.022;2024-01-15T07:10:25;1.15;;;0.75;;
37805;SDS011;25082;50.870;0.022;2024-01-15T07:12:51;1.17;;;0.68;;
37805;SDS011;25082;50.870;0.022;2024-01-15T07:15:17;1.40;;;0.65;;
37805;SDS011;25082;50.870;0.022;2024-01-15T07:17:42;2.67;;;0.82;;
37805;SDS011;25082;50.870;0.022;2024-01-15T07:20:09;1.50;;;0.70;;
37805;SDS011;25082;50.870;0.022;2024-01-15T07:22:35;2.28;;;0.60;;
37805;SDS011;25082;50.870;0.022;2024-01-15T07:25:01;2.03;;;0.98;;
37805;SDS011;25082;50.870;0.022;2024-01-15T07:27:27;2.35;;;0.77;;
37805;SDS011;25082;50.870;0.022;2024-01-15T07:29:53;1.40;;;0.77;;
37805;SDS011;25082;50.870;0.022;2024-01-15T07:32:19;1.75;;;0.70;;
37805;SDS011;25082;50.870;0.022;2024-01-15T07:34:45;1.50;;;0.80;;
37805;SDS011;25082;50.870;0.022;2024-01-15T07:37:11;0.82;;;0.70;;
37805;SDS011;25082;50.870;0.022;2024-01-15T07:39:37;1.02;;;0.55;;
37805;SDS011;25082;50.870;0.022;2024-01-15T07:42:03;1.40;;;0.88;;
37805;SDS011;25082;50.870;0.022;2024-01-15T07:44:29;1.48;;;0.70;;
37805;SDS011;25082;50.870;0.022;2024-01-15T07:46:54;1.10;;;0.50;;
37805;SDS011;25082;50.870;0.022;2024-01-15T07:49:20;2.65;;;1.10;;
37805;SDS011;25082;50.870;0.022;2024-01-15T07:51:46;2.25;;;1.10;;
37805;SDS011;25082;50.870;0.022;2024-01-15T07:54:12;1.40;;;0.85;;
37805;SDS011;25082;50.870;0.022;2024-01-15T07:56:57;2.15;;;0.70;;
37805;SDS011;25082;50.870;0.022;2024-01-15T07:59:24;0.70;;;0.50;;
37805;SDS011;25082;50.870;0.022;2024-01-15T08:01:50;1.20;;;0.55;;
37805;SDS011;25082;50.870;0.022;2024-01-15T08:04:17;0.65;;;0.50;;
37805;SDS011;25082;50.870;0.022;2024-01-15T08:06:43;0.57;;;0.57;;
37805;SDS011;25082;50.870;0.022;2024-01-15T08:09:08;1.67;;;0.88;;
37805;SDS011;25082;50.870;0.022;2024-01-15T08:11:35;0.88;;;0.63;;
37805;SDS011;25082;50.870;0.022;2024-01-15T08:14:00;0.95;;;0.60;;
37805;SDS011;25082;50.870;0.022;2024-01-15T08:16:26;1.33;;;0.52;;
37805;SDS011;25082;50.870;0.022;2024-01-15T08:18:52;0.93;;;0.60;;
37805;SDS011;25082;50.870;0.022;2024-01-15T08:21:19;0.65;;;0.40;;
37805;SDS011;25082;50.870;0.022;2024-01-15T08:23:44;1.30;;;0.70;;
37805;SDS011;25082;50.870;0.022;2024-01-15T08:26:10;2.08;;;1.17;;
37805;SDS011;25082;50.870;0.022;2024-01-15T08:28:36;0.55;;;0.50;;
37805;SDS011;25082;50.870;0.022;2024-01-15T08:31:02;1.92;;;0.85;;
37805;SDS011;25082;50.870;0.022;2024-01-15T08:33:28;2.35;;;0.80;;
37805;SDS011;25082;50.870;0.022;2024-01-15T08:35:54;1.65;;;0.77;;
37805;SDS011;25082;50.870;0.022;2024-01-15T08:38:20;1.17;;;0.77;;
37805;SDS011;25082;50.870;0.022;2024-01-15T08:40:46;1.10;;;0.50;;
37805;SDS011;25082;50.870;0.022;2024-01-15T08:43:12;0.85;;;0.70;;
37805;SDS011;25082;50.870;0.022;2024-01-15T08:45:38;0.68;;;0.52;;
37805;SDS011;25082;50.870;0.022;2024-01-15T08:48:04;1.58;;;0.60;;
37805;SDS011;25082;50.870;0.022;2024-01-15T08:50:30;2.17;;;0.90;;
37805;SDS011;25082;50.870;0.022;2024-01-15T08:52:57;1.00;;;0.60;;
37805;SDS011;25082;50.870;0.022;2024-01-15T08:55:23;2.08;;;0.95;;
37805;SDS011;25082;50.870;0.022;2024-01-15T08:57:50;1.73;;;0.90;;
37805;SDS011;25082;50.870;0.022;2024-01-15T09:00:16;2.75;;;0.77;;
37805;SDS011;25082;50.870;0.022;2024-01-15T09:02:42;1.20;;;1.00;;
37805;SDS011;25082;50.870;0.022;2024-01-15T09:05:08;4.32;;;0.60;;
37805;SDS011;25082;50.870;0.022;2024-01-15T09:07:35;1.25;;;0.60;;
37805;SDS011;25082;50.870;0.022;2024-01-15T09:10:01;1.70;;;0.60;;
37805;SDS011;25082;50.870;0.022;2024-01-15T09:12:27;1.45;;;0.80;;
37805;SDS011;25082;50.870;0.022;2024-01-15T09:14:54;2.75;;;0.77;;
37805;SDS011;25082;50.870;0.022;2024-01-15T09:17:20;0.70;;;0.47;;
37805;SDS011;25082;50.870;0.022;2024-01-15T09:19:49;0.98;;;0.65;;
37805;SDS011;25082;50.870;0.022;2024-01-15T09:22:15;0.68;;;0.68;;
37805;SDS011;25082;50.870;0.022;2024-01-15T09:24:44;0.60;;;0.60;;
37805;SDS011;25082;50.870;0.022;2024-01-15T09:27:10;0.82;;;0.50;;
37805;SDS011;25082;50.870;0.022;2024-01-15T09:29:36;1.35;;;0.80;;
37805;SDS011;25082;50.870;0.022;2024-01-15T09:32:05;1.35;;;0.60;;
37805;SDS011;25082;50.870;0.022;2024-01-15T09:34:32;4.38;;;1.00;;
37805;SDS011;25082;50.870;0.022;2024-01-15T09:36:58;4.30;;;1.08;;
37805;SDS011;25082;50.870;0.022;2024-01-15T09:39:29;3.60;;;1.45;;
37805;SDS011;25082;50.870;0.022;2024-01-15T09:41:55;2.65;;;0.63;;
37805;SDS011;25082;50.870;0.022;2024-01-15T09:44:22;3.95;;;1.27;;
37805;SDS011;25082;50.870;0.022;2024-01-15T09:46:48;2.72;;;0.82;;
37805;SDS011;25082;50.870;0.022;2024-01-15T09:49:16;7.45;;;1.00;;
37805;SDS011;25082;50.870;0.022;2024-01-15T09:51:42;3.97;;;1.33;;
37805;SDS011;25082;50.870;0.022;2024-01-15T09:54:08;5.00;;;1.08;;
37805;SDS011;25082;50.870;0.022;2024-01-15T09:56:35;6.75;;;1.05;;
37805;SDS011;25082;50.870;0.022;2024-01-15T09:59:01;4.65;;;1.45;;
37805;SDS011;25082;50.870;0.022;2024-01-15T10:01:29;3.60;;;0.85;;
37805;SDS011;25082;50.870;0.022;2024-01-15T10:03:57;13.25;;;1.58;;
37805;SDS011;25082;50.870;0.022;2024-01-15T10:06:24;8.98;;;2.05;;
37805;SDS011;25082;50.870;0.022;2024-01-15T10:08:55;9.23;;;1.13;;
37805;SDS011;25082;50.870;0.022;2024-01-15T10:11:23;3.85;;;1.60;;
37805;SDS011;25082;50.870;0.022;2024-01-15T10:13:49;6.90;;;1.40;;
37805;SDS011;25082;50.870;0.022;2024-01-15T10:16:21;3.55;;;0.85;;
37805;SDS011;25082;50.870;0.022;2024-01-15T10:18:47;8.25;;;1.25;;
37805;SDS011;25082;50.870;0.022;2024-01-15T10:21:16;6.05;;;1.48;;
37805;SDS011;25082;50.870;0.022;2024-01-15T10:23:41;4.05;;;1.45;;
37805;SDS011;25082;50.870;0.022;2024-01-15T10:26:07;4.30;;;1.10;;
37805;SDS011;25082;50.870;0.022;2024-01-15T10:28:33;3.80;;;1.20;;
37805;SDS011;25082;50.870;0.022;2024-01-15T10:30:59;6.97;;;1.27;;
37805;SDS011;25082;50.870;0.022;2024-01-15T10:33:25;4.30;;;1.10;;
37805;SDS011;25082;50.870;0.022;2024-01-15T10:35:55;6.05;;;1.70;;
37805;SDS011;25082;50.870;0.022;2024-01-15T10:38:22;3.40;;;1.40;;
37805;SDS011;25082;50.870;0.022;2024-01-15T10:40:52;2.80;;;0.93;;
37805;SDS011;25082;50.870;0.022;2024-01-15T10:43:19;4.10;;;1.02;;
37805;SDS011;25082;50.870;0.022;2024-01-15T10:45:45;2.53;;;0.88;;
37805;SDS011;25082;50.870;0.022;2024-01-15T10:48:11;3.03;;;1.17;;
37805;SDS011;25082;50.870;0.022;2024-01-15T10:50:37;3.40;;;1.33;;
37805;SDS011;25082;50.870;0.022;2024-01-15T10:53:04;2.00;;;0.90;;
37805;SDS011;25082;50.870;0.022;2024-01-15T10:55:31;2.17;;;0.93;;
37805;SDS011;25082;50.870;0.022;2024-01-15T10:57:58;1.98;;;1.10;;
37805;SDS011;25082;50.870;0.022;2024-01-15T11:00:25;2.13;;;1.20;;
37805;SDS011;25082;50.870;0.022;2024-01-15T11:02:52;3.97;;;1.15;;
37805;SDS011;25082;50.870;0.022;2024-01-15T11:05:21;2.72;;;1.25;;
37805;SDS011;25082;50.870;0.022;2024-01-15T11:07:50;3.22;;;1.05;;
37805;SDS011;25082;50.870;0.022;2024-01-15T11:13:13;3.88;;;1.02;;
37805;SDS011;25082;50.870;0.022;2024-01-15T11:16:04;4.97;;;1.30;;
37805;SDS011;25082;50.870;0.022;2024-01-15T11:18:39;4.95;;;1.17;;
37805;SDS011;25082;50.870;0.022;2024-01-15T11:28:54;2.80;;;0.98;;
37805;SDS011;25082;50.870;0.022;2024-01-15T11:34:07;2.50;;;0.70;;
37805;SDS011;25082;50.870;0.022;2024-01-15T11:41:56;1.45;;;0.70;;
37805;SDS011;25082;50.870;0.022;2024-01-15T11:44:23;1.23;;;0.77;;
37805;SDS011;25082;50.870;0.022;2024-01-15T11:46:59;1.98;;;0.77;;
37805;SDS011;25082;50.870;0.022;2024-01-15T11:52:12;2.03;;;0.90;;
37805;SDS011;25082;50.870;0.022;2024-01-15T12:00:05;1.45;;;0.88;;
37805;SDS011;25082;50.870;0.022;2024-01-15T12:02:36;0.98;;;0.70;;
37805;SDS011;25082;50.870;0.022;2024-01-15T12:05:03;2.03;;;0.60;;
37805;SDS011;25082;50.870;0.022;2024-01-15T12:07:29;1.38;;;0.82;;
37805;SDS011;25082;50.870;0.022;2024-01-15T12:09:54;1.35;;;0.70;;
37805;SDS011;25082;50.870;0.022;2024-01-15T12:15:09;3.38;;;0.88;;
37805;SDS011;25082;50.870;0.022;2024-01-15T12:17:35;4.95;;;1.10;;
37805;SDS011;25082;50.870;0.022;2024-01-15T12:20:06;5.70;;;1.25;;
37805;SDS011;25082;50.870;0.022;2024-01-15T12:22:32;6.05;;;1.10;;
37805;SDS011;25082;50.870;0.022;2024-01-15T12:24:58;5.60;;;1.75;;
37805;SDS011;25082;50.870;0.022;2024-01-15T12:27:24;7.13;;;1.38;;
37805;SDS011;25082;50.870;0.022;2024-01-15T12:29:52;7.88;;;1.40;;
37805;SDS011;25082;50.870;0.022;2024-01-15T12:32:18;3.70;;;1.13;;
37805;SDS011;25082;50.870;0.022;2024-01-15T12:34:45;6.50;;;1.27;;
37805;SDS011;25082;50.870;0.022;2024-01-15T12:37:11;11.27;;;1.50;;
37805;SDS011;25082;50.870;0.022;2024-01-15T12:39:37;9.35;;;2.15;;
37805;SDS011;25082;50.870;0.022;2024-01-15T12:42:03;4.03;;;1.10;;
37805;SDS011;25082;50.870;0.022;2024-01-15T12:44:30;7.65;;;1.85;;
37805;SDS011;25082;50.870;0.022;2024-01-15T12:46:56;8.18;;;1.50;;
37805;SDS011;25082;50.870;0.022;2024-01-15T12:49:23;7.78;;;1.38;;
37805;SDS011;25082;50.870;0.022;2024-01-15T12:52:32;6.32;;;1.80;;
37805;SDS011;25082;50.870;0.022;2024-01-15T12:54:38;4.03;;;1.17;;
37805;SDS011;25082;50.870;0.022;2024-01-15T12:57:03;6.05;;;1.20;;
37805;SDS011;25082;50.870;0.022;2024-01-15T12:59:29;21.42;;;2.40;;
37805;SDS011;25082;50.870;0.022;2024-01-15T13:01:55;12.20;;;2.28;;
37805;SDS011;25082;50.870;0.022;2024-01-15T13:04:24;10.30;;;1.05;;
37805;SDS011;25082;50.870;0.022;2024-01-15T13:06:50;10.35;;;1.75;;
37805;SDS011;25082;50.870;0.022;2024-01-15T13:09:19;4.85;;;1.23;;
37805;SDS011;25082;50.870;0.022;2024-01-15T13:11:45;5.68;;;0.93;;
37805;SDS011;25082;50.870;0.022;2024-01-15T13:14:11;4.03;;;0.90;;
37805;SDS011;25082;50.870;0.022;2024-01-15T13:16:39;7.57;;;1.05;;
37805;SDS011;25082;50.870;0.022;2024-01-15T13:19:08;8.27;;;1.23;;
37805;SDS011;25082;50.870;0.022;2024-01-15T13:21:36;4.78;;;0.93;;
37805;SDS011;25082;50.870;0.022;2024-01-15T13:24:02;4.35;;;1.15;;
37805;SDS011;25082;50.870;0.022;2024-01-15T13:26:31;5.03;;;1.42;;
37805;SDS011;25082;50.870;0.022;2024-01-15T13:28:58;24.50;;;2.22;;
37805;SDS011;25082;50.870;0.022;2024-01-15T13:31:27;14.57;;;2.00;;
37805;SDS011;25082;50.870;0.022;2024-01-15T13:33:53;6.72;;;1.38;;
37805;SDS011;25082;50.870;0.022;2024-01-15T13:36:21;7.15;;;1.60;;
37805;SDS011;25082;50.870;0.022;2024-01-15T13:38:51;7.93;;;1.45;;
37805;SDS011;25082;50.870;0.022;2024-01-15T13:41:21;5.85;;;1.08;;
37805;SDS011;25082;50.870;0.022;2024-01-15T13:43:50;3.95;;;1.20;;
37805;SDS011;25082;50.870;0.022;2024-01-15T13:46:18;9.35;;;1.42;;
37805;SDS011;25082;50.870;0.022;2024-01-15T13:48:45;3.80;;;1.23;;
37805;SDS011;25082;50.870;0.022;2024-01-15T13:51:10;6.40;;;1.10;;
37805;SDS011;25082;50.870;0.022;2024-01-15T13:53:39;7.20;;;1.05;;
37805;SDS011;25082;50.870;0.022;2024-01-15T13:56:05;10.73;;;1.42;;
37805;SDS011;25082;50.870;0.022;2024-01-15T13:58:32;6.15;;;1.20;;
37805;SDS011;25082;50.870;0.022;2024-01-15T14:00:59;8.13;;;1.05;;
37805;SDS011;25082;50.870;0.022;2024-01-15T14:03:25;8.18;;;1.25;;
37805;SDS011;25082;50.870;0.022;2024-01-15T14:05:51;5.03;;;1.02;;
37805;SDS011;25082;50.870;0.022;2024-01-15T14:08:17;9.80;;;1.45;;
37805;SDS011;25082;50.870;0.022;2024-01-15T14:10:46;6.38;;;0.82;;
37805;SDS011;25082;50.870;0.022;2024-01-15T14:13:12;5.10;;;1.13;;
37805;SDS011;25082;50.870;0.022;2024-01-15T14:15:38;7.80;;;1.10;;
37805;SDS011;25082;50.870;0.022;2024-01-15T14:18:04;4.43;;;1.13;;
37805;SDS011;25082;50.870;0.022;2024-01-15T14:20:29;4.82;;;0.85;;
37805;SDS011;25082;50.870;0.022;2024-01-15T14:22:56;4.80;;;0.82;;
37805;SDS011;25082;50.870;0.022;2024-01-15T14:25:21;5.85;;;1.20;;
37805;SDS011;25082;50.870;0.022;2024-01-15T14:27:48;6.50;;;1.02;;
37805;SDS011;25082;50.870;0.022;2024-01-15T14:30:14;7.45;;;0.95;;
37805;SDS011;25082;50.870;0.022;2024-01-15T14:32:41;6.65;;;0.90;;
37805;SDS011;25082;50.870;0.022;2024-01-15T14:35:07;5.20;;;1.25;;
37805;SDS011;25082;50.870;0.022;2024-01-15T14:37:38;5.90;;;1.10;;
37805;SDS011;25082;50.870;0.022;2024-01-15T14:40:08;3.25;;;0.90;;
37805;SDS011;25082;50.870;0.022;2024-01-15T14:42:40;5.43;;;0.70;;
37805;SDS011;25082;50.870;0.022;2024-01-15T14:45:06;3.78;;;1.00;;
37805;SDS011;25082;50.870;0.022;2024-01-15T14:47:37;4.32;;;1.02;;
37805;SDS011;25082;50.870;0.022;2024-01-15T14:50:04;3.40;;;0.90;;
37805;SDS011;25082;50.870;0.022;2024-01-15T14:52:31;7.13;;;1.50;;
37805;SDS011;25082;50.870;0.022;2024-01-15T14:54:58;2.63;;;0.80;;
37805;SDS011;25082;50.870;0.022;2024-01-15T14:57:24;4.70;;;0.77;;
37805;SDS011;25082;50.870;0.022;2024-01-15T14:59:50;2.67;;;1.20;;
37805;SDS011;25082;50.870;0.022;2024-01-15T15:02:18;2.78;;;0.80;;
37805;SDS011;25082;50.870;0.022;2024-01-15T15:04:44;1.75;;;0.85;;
37805;SDS011;25082;50.870;0.022;2024-01-15T15:07:10;3.65;;;0.93;;
37805;SDS011;25082;50.870;0.022;2024-01-15T15:09:36;2.53;;;0.75;;
37805;SDS011;25082;50.870;0.022;2024-01-15T15:12:05;1.15;;;0.85;;
37805;SDS011;25082;50.870;0.022;2024-01-15T15:14:32;4.68;;;0.95;;